Time;durP1;ratioP1;P1;durP2;ratioP2;P2;SDS_P1;SDS_P2;PMS_P1;PMS_P2;Temp;Humidity;BMP_temperature;BMP_pressure;BME280_temperature;BME280_humidity;BME280_pressure;Samples;Min_cycle;Max_cycle;Signal;HPM_P1;HPM_P2
2021/04/24 00:01:05;;;;;;;9.73;3.30;;;;;;;;;;4898813;29;20545;-73
2021/04/24 00:04:10;;;;;;;12.47;2.97;;;;;;;;;;4868666;29;20548;-73
2021/04/24 00:07:14;;;;;;;4.47;2.77;;;;;;;;;;4879150;29;20559;-73
2021/04/24 00:10:20;;;;;;;6.33;3.30;;;;;;;;;;4879924;29;21141;-73
2021/04/24 00:13:24;;;;;;;12.03;3.60;;;;;;;;;;4880068;29;20566;-73
2021/04/24 00:16:28;;;;;;;5.90;3.60;;;;;;;;;;4880098;29;20630;-73
2021/04/24 00:19:32;;;;;;;5.87;3.00;;;;;;;;;;4878792;29;20555;-73
2021/04/24 00:22:37;;;;;;;7.83;3.00;;;;;;;;;;4879318;29;20555;-73
2021/04/24 00:25:41;;;;;;;7.97;3.27;;;;;;;;;;4880292;29;20626;-73
2021/04/24 00:28:47;;;;;;;7.70;3.60;;;;;;;;;;4897495;29;20564;-73
2021/04/24 00:31:51;;;;;;;6.47;2.93;;;;;;;;;;4898035;29;20615;-72
2021/04/24 00:34:55;;;;;;;7.67;3.57;;;;;;;;;;4898249;29;20554;-73
2021/04/24 00:38:00;;;;;;;5.40;3.20;;;;;;;;;;4898050;29;20566;-72
2021/04/24 00:41:04;;;;;;;8.17;3.67;;;;;;;;;;4898533;29;20554;-73
2021/04/24 00:44:08;;;;;;;6.83;3.70;;;;;;;;;;4898379;29;20921;-73
2021/04/24 00:47:13;;;;;;;8.13;3.40;;;;;;;;;;4898168;29;21215;-73
2021/04/24 00:50:21;;;;;;;5.27;3.30;;;;;;;;;;4898117;29;20605;-73
2021/04/24 00:53:26;;;;;;;6.97;3.70;;;;;;;;;;4898037;29;20562;-73
2021/04/24 00:56:32;;;;;;;6.43;3.27;;;;;;;;;;4898332;29;20625;-72
2021/04/24 00:59:47;;;;;;;8.73;3.50;;;;;;;;;;4887308;29;21101;-73
2021/04/24 01:02:53;;;;;;;8.27;4.10;;;;;;;;;;4898084;29;20542;-73
2021/04/24 01:05:58;;;;;;;6.83;3.80;;;;;;;;;;4901211;29;20629;-73
2021/04/24 01:09:05;;;;;;;6.97;3.40;;;;;;;;;;4901613;29;20566;-73
2021/04/24 01:12:09;;;;;;;8.30;3.30;;;;;;;;;;4901692;29;20602;-73
2021/04/24 01:15:15;;;;;;;5.70;3.93;;;;;;;;;;4901564;29;20629;-73
2021/04/24 01:18:19;;;;;;;7.50;3.90;;;;;;;;;;4900826;29;20609;-73
2021/04/24 01:21:26;;;;;;;9.10;3.93;;;;;;;;;;4901630;29;20538;-72
2021/04/24 01:24:31;;;;;;;8.07;3.47;;;;;;;;;;4901346;29;20562;-72
2021/04/24 01:27:35;;;;;;;6.50;3.43;;;;;;;;;;4901529;29;20550;-72
2021/04/24 01:30:43;;;;;;;9.17;3.53;;;;;;;;;;4901368;29;20593;-72
2021/04/24 01:33:47;;;;;;;6.00;3.07;;;;;;;;;;4901133;29;20551;-72
2021/04/24 01:36:54;;;;;;;9.33;3.63;;;;;;;;;;4900453;29;20641;-72
2021/04/24 01:39:59;;;;;;;8.80;4.37;;;;;;;;;;4901276;29;20550;-73
2021/04/24 01:43:05;;;;;;;8.33;3.87;;;;;;;;;;4900405;29;20546;-73
2021/04/24 01:46:09;;;;;;;10.27;3.93;;;;;;;;;;4900532;29;20974;-73
2021/04/24 01:49:13;;;;;;;7.53;4.20;;;;;;;;;;4901136;29;20542;-73
2021/04/24 01:52:17;;;;;;;8.30;4.30;;;;;;;;;;4911020;29;20977;-73
2021/04/24 01:55:25;;;;;;;6.63;3.80;;;;;;;;;;4900868;29;20629;-73
2021/04/24 01:58:29;;;;;;;7.07;3.93;;;;;;;;;;4900083;29;20562;-73
2021/04/24 02:01:34;;;;;;;6.03;3.50;;;;;;;;;;4899864;29;20550;-73
2021/04/24 02:04:38;;;;;;;8.17;3.77;;;;;;;;;;4900065;29;20550;-73
2021/04/24 02:07:55;;;;;;;7.00;3.50;;;;;;;;;;4900750;29;20554;-73
2021/04/24 02:11:07;;;;;;;8.03;3.43;;;;;;;;;;4900951;29;20598;-73
2021/04/24 02:14:11;;;;;;;9.30;4.70;;;;;;;;;;4899832;29;20554;-73
2021/04/24 02:17:19;;;;;;;8.00;3.97;;;;;;;;;;4899426;29;20542;-73
2021/04/24 02:20:25;;;;;;;8.13;3.47;;;;;;;;;;4900599;29;20550;-73
2021/04/24 02:23:34;;;;;;;7.43;3.83;;;;;;;;;;4900511;29;20543;-73
2021/04/24 02:26:39;;;;;;;9.73;3.73;;;;;;;;;;4900373;29;20629;-73
2021/04/24 02:29:44;;;;;;;11.00;3.77;;;;;;;;;;4900222;29;20562;-73
2021/04/24 02:32:49;;;;;;;11.77;4.00;;;;;;;;;;4900406;29;20538;-72
2021/04/24 02:35:56;;;;;;;9.90;3.73;;;;;;;;;;4900011;29;20621;-73
2021/04/24 02:38:59;;;;;;;9.07;4.03;;;;;;;;;;4888739;29;20886;-73
2021/04/24 02:42:06;;;;;;;7.43;3.53;;;;;;;;;;4899420;29;20546;-73
2021/04/24 02:45:13;;;;;;;12.03;4.20;;;;;;;;;;4898986;29;20622;-73
2021/04/24 02:48:18;;;;;;;9.40;3.77;;;;;;;;;;4899798;29;20617;-73
2021/04/24 02:51:22;;;;;;;9.20;4.23;;;;;;;;;;4899168;29;20602;-73
2021/04/24 02:54:26;;;;;;;9.87;3.90;;;;;;;;;;4900010;29;20550;-73
2021/04/24 02:57:30;;;;;;;10.73;3.93;;;;;;;;;;4898854;29;20546;-73
2021/04/24 03:00:35;;;;;;;12.47;4.03;;;;;;;;;;4899870;29;20551;-73
2021/04/24 03:03:39;;;;;;;17.07;4.30;;;;;;;;;;4899794;29;20546;-73
2021/04/24 03:06:45;;;;;;;10.73;4.23;;;;;;;;;;4899447;29;20625;-73
2021/04/24 03:09:49;;;;;;;13.43;4.83;;;;;;;;;;4898927;29;21077;-73
2021/04/24 03:12:53;;;;;;;6.57;4.07;;;;;;;;;;4898845;29;20542;-73
2021/04/24 03:15:58;;;;;;;11.63;5.20;;;;;;;;;;4898441;29;20634;-72
2021/04/24 03:19:03;;;;;;;10.53;4.47;;;;;;;;;;4899813;29;20894;-73
2021/04/24 03:22:07;;;;;;;7.70;3.97;;;;;;;;;;4898517;29;21097;-73
2021/04/24 03:25:12;;;;;;;14.37;4.13;;;;;;;;;;4899091;29;20625;-73
2021/04/24 03:28:17;;;;;;;15.00;4.30;;;;;;;;;;4898891;29;20563;-73
2021/04/24 03:31:22;;;;;;;8.20;4.20;;;;;;;;;;4898133;29;20653;-73
2021/04/24 03:34:26;;;;;;;10.77;4.07;;;;;;;;;;4898439;29;20547;-73
2021/04/24 03:37:30;;;;;;;17.03;4.30;;;;;;;;;;4899189;29;20899;-73
2021/04/24 03:40:35;;;;;;;12.03;4.40;;;;;;;;;;4909445;29;20543;-73
2021/04/24 03:43:39;;;;;;;10.53;4.03;;;;;;;;;;4898763;29;20562;-73
2021/04/24 03:46:44;;;;;;;9.07;3.97;;;;;;;;;;4898012;29;20633;-73
2021/04/24 03:49:48;;;;;;;10.27;4.07;;;;;;;;;;4898986;29;20550;-73
2021/04/24 03:52:53;;;;;;;15.70;4.60;;;;;;;;;;4897891;29;20606;-73
2021/04/24 03:55:57;;;;;;;10.37;4.17;;;;;;;;;;4898026;29;21212;-73
2021/04/24 03:59:02;;;;;;;6.90;3.90;;;;;;;;;;4897859;29;20899;-73
2021/04/24 04:02:06;;;;;;;11.37;4.17;;;;;;;;;;4898757;29;20543;-73
2021/04/24 04:05:12;;;;;;;10.00;4.53;;;;;;;;;;4898445;29;20629;-72
2021/04/24 04:08:15;;;;;;;9.20;4.37;;;;;;;;;;4897483;29;20562;-73
2021/04/24 04:11:20;;;;;;;11.67;4.50;;;;;;;;;;4894608;29;21326;-73
2021/04/24 04:14:25;;;;;;;11.67;4.90;;;;;;;;;;4894638;29;20574;-74
2021/04/24 04:17:30;;;;;;;12.87;4.53;;;;;;;;;;4894579;29;20574;-73
2021/04/24 04:20:36;;;;;;;11.77;4.60;;;;;;;;;;4882844;29;20578;-74
2021/04/24 04:23:40;;;;;;;9.00;4.70;;;;;;;;;;4893426;29;20562;-73
2021/04/24 04:26:44;;;;;;;9.40;4.70;;;;;;;;;;4894431;29;20633;-73
2021/04/24 04:29:49;;;;;;;13.50;4.90;;;;;;;;;;4882952;29;20606;-74
2021/04/24 04:32:55;;;;;;;7.67;4.73;;;;;;;;;;4894294;29;20653;-73
2021/04/24 04:36:04;;;;;;;11.73;4.83;;;;;;;;;;4893602;29;20626;-74
2021/04/24 04:39:08;;;;;;;9.63;4.57;;;;;;;;;;4868193;29;20586;-74
2021/04/24 04:42:13;;;;;;;37.60;5.63;;;;;;;;;;4893371;29;20590;-73
2021/04/24 04:45:18;;;;;;;7.40;4.70;;;;;;;;;;4894351;29;21058;-73
2021/04/24 04:48:22;;;;;;;9.00;4.80;;;;;;;;;;4895439;29;21005;-73
2021/04/24 04:51:26;;;;;;;11.23;4.80;;;;;;;;;;4894066;29;21002;-73
2021/04/24 04:54:31;;;;;;;10.57;4.43;;;;;;;;;;4894138;29;21137;-73
2021/04/24 04:57:35;;;;;;;9.23;4.27;;;;;;;;;;4894379;29;20569;-73
2021/04/24 05:00:39;;;;;;;6.10;3.97;;;;;;;;;;4903753;29;21152;-73
2021/04/24 05:03:44;;;;;;;8.27;4.10;;;;;;;;;;4893221;29;20609;-73
2021/04/24 05:06:49;;;;;;;10.73;4.10;;;;;;;;;;4893239;29;20629;-73
2021/04/24 05:09:53;;;;;;;11.83;4.50;;;;;;;;;;4893133;29;20594;-74
2021/04/24 05:12:58;;;;;;;10.53;3.93;;;;;;;;;;4893921;29;20625;-73
2021/04/24 05:16:02;;;;;;;7.40;4.23;;;;;;;;;;4893067;29;21021;-73
2021/04/24 05:19:06;;;;;;;14.90;4.57;;;;;;;;;;4894076;29;20610;-74
2021/04/24 05:22:11;;;;;;;7.90;4.27;;;;;;;;;;4893881;29;20569;-74
2021/04/24 05:25:18;;;;;;;12.50;5.00;;;;;;;;;;4894001;29;20638;-73
2021/04/24 05:28:22;;;;;;;7.07;3.93;;;;;;;;;;4893222;29;20570;-73
2021/04/24 05:31:27;;;;;;;9.87;4.47;;;;;;;;;;4893858;29;21136;-74
2021/04/24 05:34:32;;;;;;;6.80;4.30;;;;;;;;;;4893533;29;20570;-73
2021/04/24 05:37:36;;;;;;;10.23;4.50;;;;;;;;;;4893143;29;21120;-73
2021/04/24 05:40:40;;;;;;;12.90;4.43;;;;;;;;;;4893031;29;20574;-73
2021/04/24 05:43:45;;;;;;;39.53;6.50;;;;;;;;;;4893746;29;20565;-73
2021/04/24 05:46:49;;;;;;;14.23;5.33;;;;;;;;;;4893255;29;20656;-73
2021/04/24 05:49:53;;;;;;;8.50;5.10;;;;;;;;;;4893858;29;20573;-74
2021/04/24 05:52:57;;;;;;;10.77;5.23;;;;;;;;;;4896987;29;20977;-73
2021/04/24 05:56:02;;;;;;;9.73;5.20;;;;;;;;;;4896999;29;21215;-73
2021/04/24 05:59:06;;;;;;;9.63;5.03;;;;;;;;;;4896736;29;20585;-73
2021/04/24 06:02:11;;;;;;;7.13;4.40;;;;;;;;;;4896979;29;20574;-73
2021/04/24 06:05:15;;;;;;;7.67;4.37;;;;;;;;;;4896068;29;20633;-73
2021/04/24 06:08:19;;;;;;;6.37;4.67;;;;;;;;;;4918095;23;20704;-73
2021/04/24 06:11:24;;;;;;;11.50;4.70;;;;;;;;;;4907810;29;20588;-73
2021/04/24 06:14:28;;;;;;;8.10;5.10;;;;;;;;;;4919267;29;20169;-73
2021/04/24 06:17:32;;;;;;;6.87;4.10;;;;;;;;;;4881477;29;20647;-73
2021/04/24 06:20:37;;;;;;;7.77;5.13;;;;;;;;;;4895340;29;20201;-73
2021/04/24 06:23:41;;;;;;;8.00;4.27;;;;;;;;;;4900433;29;20177;-73
2021/04/24 06:26:45;;;;;;;9.83;4.63;;;;;;;;;;4877859;29;20217;-73
2021/04/24 06:29:49;;;;;;;7.57;4.40;;;;;;;;;;4900375;29;20182;-73
2021/04/24 06:32:56;;;;;;;8.40;4.70;;;;;;;;;;4900483;29;20205;-73
2021/04/24 06:36:00;;;;;;;10.03;4.77;;;;;;;;;;4888786;29;20562;-73
2021/04/24 06:39:06;;;;;;;9.50;5.23;;;;;;;;;;4880678;29;20209;-73
2021/04/24 06:42:10;;;;;;;6.50;4.90;;;;;;;;;;4881357;29;20689;-73
2021/04/24 06:45:16;;;;;;;9.40;4.77;;;;;;;;;;4881271;29;20221;-73
2021/04/24 06:48:20;;;;;;;8.57;4.50;;;;;;;;;;4881060;29;20198;-73
2021/04/24 06:51:25;;;;;;;10.97;5.03;;;;;;;;;;4881750;29;20182;-73
2021/04/24 06:54:29;;;;;;;9.53;4.80;;;;;;;;;;4881154;29;20531;-73
2021/04/24 06:57:33;;;;;;;9.13;4.90;;;;;;;;;;4881289;29;20206;-73
2021/04/24 07:00:37;;;;;;;11.93;4.73;;;;;;;;;;4880786;29;20228;-73
2021/04/24 07:03:42;;;;;;;9.27;4.97;;;;;;;;;;4880042;29;20198;-73
2021/04/24 07:06:46;;;;;;;9.93;5.13;;;;;;;;;;4880792;29;20218;-73
2021/04/24 07:09:50;;;;;;;9.50;4.97;;;;;;;;;;4880538;29;20677;-75
2021/04/24 07:12:54;;;;;;;13.47;5.40;;;;;;;;;;4880661;29;20214;-75
2021/04/24 07:16:02;;;;;;;14.70;5.20;;;;;;;;;;4880749;29;20230;-75
2021/04/24 07:19:07;;;;;;;10.50;4.57;;;;;;;;;;4880963;29;20179;-75
2021/04/24 07:22:11;;;;;;;6.97;4.20;;;;;;;;;;4880127;29;20179;-75
2021/04/24 07:25:16;;;;;;;12.97;5.50;;;;;;;;;;4880855;29;20217;-74
2021/04/24 07:28:21;;;;;;;7.57;4.70;;;;;;;;;;4869268;29;20186;-74
2021/04/24 07:31:25;;;;;;;13.30;5.00;;;;;;;;;;4880803;29;20189;-75
2021/04/24 07:34:29;;;;;;;9.53;4.67;;;;;;;;;;4880757;29;20654;-74
2021/04/24 07:37:33;;;;;;;11.93;4.67;;;;;;;;;;4880843;29;20535;-74
2021/04/24 07:40:37;;;;;;;9.53;4.57;;;;;;;;;;4879874;29;20186;-74
2021/04/24 07:43:42;;;;;;;8.87;4.40;;;;;;;;;;4868822;29;20183;-74
2021/04/24 07:46:46;;;;;;;9.70;4.63;;;;;;;;;;4868760;29;20218;-74
2021/04/24 07:49:52;;;;;;;9.37;5.30;;;;;;;;;;4879687;29;20194;-74
2021/04/24 07:52:56;;;;;;;6.93;4.07;;;;;;;;;;4868637;29;20226;-74
2021/04/24 07:56:00;;;;;;;5.57;4.23;;;;;;;;;;4880133;29;20225;-74
2021/04/24 07:59:05;;;;;;;10.40;4.10;;;;;;;;;;4879906;29;20202;-73
2021/04/24 08:02:12;;;;;;;8.20;4.10;;;;;;;;;;4880130;29;20182;-73
2021/04/24 08:05:17;;;;;;;7.90;4.40;;;;;;;;;;4879358;29;20218;-73
2021/04/24 08:08:21;;;;;;;10.23;4.00;;;;;;;;;;4879115;29;20206;-73
2021/04/24 08:11:25;;;;;;;9.90;4.33;;;;;;;;;;4880142;29;20186;-73
2021/04/24 08:14:29;;;;;;;9.63;3.90;;;;;;;;;;4879507;29;20214;-73
2021/04/24 08:17:33;;;;;;;10.17;3.63;;;;;;;;;;4879837;29;20205;-73
2021/04/24 08:20:38;;;;;;;15.10;4.80;;;;;;;;;;4879787;29;20193;-73
2021/04/24 08:23:42;;;;;;;14.57;4.50;;;;;;;;;;4879435;29;20182;-73
2021/04/24 08:26:46;;;;;;;7.90;4.03;;;;;;;;;;4879467;29;20217;-74
2021/04/24 08:29:51;;;;;;;8.03;4.10;;;;;;;;;;4879366;29;20198;-73
2021/04/24 08:32:55;;;;;;;8.37;4.23;;;;;;;;;;4879306;29;20226;-73
2021/04/24 08:35:59;;;;;;;11.47;5.23;;;;;;;;;;4879371;29;20221;-73
2021/04/24 08:39:05;;;;;;;7.97;4.63;;;;;;;;;;4868365;29;20206;-73
2021/04/24 08:42:09;;;;;;;11.47;5.90;;;;;;;;;;4879582;29;20524;-73
2021/04/24 08:45:16;;;;;;;10.87;6.00;;;;;;;;;;4879638;29;20575;-73
2021/04/24 08:48:20;;;;;;;7.87;4.60;;;;;;;;;;4879749;29;20182;-73
2021/04/24 08:51:27;;;;;;;7.90;4.60;;;;;;;;;;4879355;29;20178;-73
2021/04/24 08:54:31;;;;;;;9.53;4.47;;;;;;;;;;4879228;29;20210;-73
2021/04/24 08:57:37;;;;;;;7.97;4.10;;;;;;;;;;4879135;29;20210;-74
2021/04/24 09:00:42;;;;;;;11.70;5.17;;;;;;;;;;4879398;29;20519;-73
2021/04/24 09:03:47;;;;;;;8.53;4.10;;;;;;;;;;4879409;29;20182;-73
2021/04/24 09:06:51;;;;;;;10.03;3.73;;;;;;;;;;4879260;29;20558;-74
2021/04/24 09:09:57;;;;;;;8.87;4.43;;;;;;;;;;4879040;29;20206;-74
2021/04/24 09:13:01;;;;;;;6.13;4.20;;;;;;;;;;4878666;29;20673;-73
2021/04/24 09:16:05;;;;;;;8.43;4.50;;;;;;;;;;4878883;29;20230;-73
2021/04/24 09:19:27;;;;;;;7.50;4.77;;;;;;;;;;4879337;29;20202;-73
2021/04/24 09:22:32;;;;;;;7.87;5.17;;;;;;;;;;4879311;29;20186;-74
2021/04/24 09:25:41;;;;;;;8.10;4.60;;;;;;;;;;4868676;29;20221;-74
2021/04/24 09:28:48;;;;;;;9.30;4.37;;;;;;;;;;4871279;29;20198;-73
2021/04/24 09:31:54;;;;;;;7.43;5.03;;;;;;;;;;4882920;29;20182;-73
2021/04/24 09:34:58;;;;;;;10.00;4.30;;;;;;;;;;4871104;29;20195;-73
2021/04/24 09:38:03;;;;;;;7.10;4.90;;;;;;;;;;4882371;29;20190;-73
2021/04/24 09:41:17;;;;;;;13.40;5.10;;;;;;;;;;4870961;29;20187;-73
2021/04/24 09:44:24;;;;;;;17.37;5.87;;;;;;;;;;4881555;29;20178;-74
2021/04/24 09:47:39;;;;;;;20.77;7.90;;;;;;;;;;4882124;29;20202;-73
2021/04/24 09:50:43;;;;;;;12.47;5.73;;;;;;;;;;4882391;29;20183;-73
2021/04/24 09:53:57;;;;;;;16.53;7.53;;;;;;;;;;4882014;29;20234;-73
2021/04/24 09:57:19;;;;;;;38.37;24.83;;;;;;;;;;4881919;29;20236;-73
2021/04/24 10:00:28;;;;;;;21.07;15.10;;;;;;;;;;4870622;29;20192;-73
2021/04/24 10:03:37;;;;;;;10.07;5.23;;;;;;;;;;4881532;29;20211;-73
2021/04/24 10:06:44;;;;;;;11.53;6.03;;;;;;;;;;4881995;29;20565;-74
2021/04/24 10:09:48;;;;;;;8.57;5.33;;;;;;;;;;4881729;29;20206;-73
2021/04/24 10:12:57;;;;;;;10.73;5.27;;;;;;;;;;4881951;29;20524;-74
2021/04/24 10:16:02;;;;;;;12.30;5.90;;;;;;;;;;4882067;29;20223;-73
2021/04/24 10:19:08;;;;;;;10.93;5.90;;;;;;;;;;4881960;29;20187;-73
2021/04/24 10:22:23;;;;;;;11.10;5.00;;;;;;;;;;4882028;29;20519;-73
2021/04/24 10:25:29;;;;;;;9.00;4.80;;;;;;;;;;4881568;29;20216;-74
2021/04/24 10:28:34;;;;;;;7.10;4.10;;;;;;;;;;4881584;29;20196;-73
2021/04/24 10:31:38;;;;;;;7.93;4.70;;;;;;;;;;4881935;29;20187;-73
2021/04/24 10:34:43;;;;;;;6.97;4.47;;;;;;;;;;4881828;29;20210;-73
2021/04/24 10:37:49;;;;;;;7.83;4.87;;;;;;;;;;4880588;29;20529;-73
2021/04/24 10:40:53;;;;;;;6.70;4.67;;;;;;;;;;4881757;29;20210;-73
2021/04/24 10:44:09;;;;;;;10.53;4.23;;;;;;;;;;4881453;29;20198;-73
2021/04/24 10:47:13;;;;;;;8.80;5.53;;;;;;;;;;4880999;29;20222;-74
2021/04/24 10:50:23;;;;;;;12.10;6.27;;;;;;;;;;4880969;29;20201;-73
2021/04/24 10:53:30;;;;;;;8.63;5.10;;;;;;;;;;4880807;29;20575;-73
2021/04/24 10:56:34;;;;;;;7.20;3.93;;;;;;;;;;4880913;29;20715;-74
2021/04/24 10:59:52;;;;;;;6.50;4.30;;;;;;;;;;4881061;29;20189;-74
2021/04/24 11:02:59;;;;;;;7.23;4.40;;;;;;;;;;4881465;29;20197;-74
2021/04/24 11:06:11;;;;;;;12.07;5.47;;;;;;;;;;4881245;29;20218;-74
2021/04/24 11:09:20;;;;;;;11.57;4.83;;;;;;;;;;4880848;29;20212;-74
2021/04/24 11:12:25;;;;;;;10.83;4.83;;;;;;;;;;4881177;29;20191;-74
2021/04/24 11:15:29;;;;;;;10.87;4.90;;;;;;;;;;4881130;29;20231;-74
2021/04/24 11:18:35;;;;;;;23.17;5.00;;;;;;;;;;4882914;29;20188;-74
2021/04/24 11:21:41;;;;;;;14.63;5.00;;;;;;;;;;4884149;29;20184;-73
2021/04/24 11:24:45;;;;;;;10.97;5.27;;;;;;;;;;4884050;29;20180;-74
2021/04/24 11:28:00;;;;;;;11.65;5.63;;;;;;;;;;4882613;29;20190;-74
2021/04/24 11:31:06;;;;;;;7.40;5.30;;;;;;;;;;4881796;29;20192;-74
2021/04/24 11:34:31;;;;;;;8.77;5.37;;;;;;;;;;4882182;29;20204;-76
2021/04/24 11:37:48;;;;;;;13.37;5.97;;;;;;;;;;4880096;29;20192;-74
2021/04/24 11:41:12;;;;;;;9.57;5.53;;;;;;;;;;4880442;29;20190;-74
2021/04/24 11:44:23;;;;;;;6.60;4.17;;;;;;;;;;4879643;29;20182;-73
2021/04/24 11:47:40;;;;;;;11.40;4.33;;;;;;;;;;4881077;29;20182;-73
2021/04/24 11:50:45;;;;;;;7.83;4.27;;;;;;;;;;4880423;29;20302;-74
2021/04/24 11:53:49;;;;;;;5.80;4.30;;;;;;;;;;4879475;29;20216;-73
2021/04/24 11:56:56;;;;;;;6.90;4.23;;;;;;;;;;4880004;29;20218;-74
2021/04/24 12:00:06;;;;;;;8.30;4.07;;;;;;;;;;4879884;29;20193;-75
2021/04/24 12:03:11;;;;;;;9.30;4.63;;;;;;;;;;4868265;29;20207;-74
2021/04/24 12:06:39;;;;;;;7.83;4.33;;;;;;;;;;4880165;29;20222;-74
2021/04/24 12:09:49;;;;;;;5.73;4.30;;;;;;;;;;4912138;23;20232;-73
2021/04/24 12:13:06;;;;;;;7.53;4.13;;;;;;;;;;4886860;29;20183;-74
2021/04/24 12:16:10;;;;;;;5.27;3.80;;;;;;;;;;4898920;29;20546;-73
2021/04/24 12:19:29;;;;;;;8.47;3.90;;;;;;;;;;4887272;29;20670;-73
2021/04/24 12:22:38;;;;;;;5.80;4.20;;;;;;;;;;4887041;29;20191;-73
2021/04/24 12:25:46;;;;;;;7.00;3.70;;;;;;;;;;4898642;29;20687;-73
2021/04/24 12:28:50;;;;;;;10.40;3.80;;;;;;;;;;4898510;29;20182;-73
2021/04/24 12:31:54;;;;;;;11.93;3.93;;;;;;;;;;4898115;29;20531;-73
2021/04/24 12:35:17;;;;;;;9.27;4.30;;;;;;;;;;4897930;29;20218;-73
2021/04/24 12:38:22;;;;;;;9.97;4.50;;;;;;;;;;4897540;29;20650;-73
2021/04/24 12:41:27;;;;;;;6.40;4.30;;;;;;;;;;4887008;29;20182;-73
2021/04/24 12:44:32;;;;;;;8.83;4.30;;;;;;;;;;4886652;29;20187;-73
2021/04/24 12:47:38;;;;;;;7.80;4.03;;;;;;;;;;4898067;29;20234;-73
2021/04/24 12:50:43;;;;;;;7.27;4.30;;;;;;;;;;4886651;29;20189;-73
2021/04/24 12:53:51;;;;;;;7.23;4.13;;;;;;;;;;4886187;29;20650;-73
2021/04/24 12:57:19;;;;;;;6.23;3.90;;;;;;;;;;4898002;29;20216;-73
2021/04/24 13:00:29;;;;;;;6.37;4.30;;;;;;;;;;4887457;29;20186;-73
2021/04/24 13:03:34;;;;;;;5.97;4.30;;;;;;;;;;4901234;29;20186;-72
2021/04/24 13:06:56;;;;;;;6.93;3.63;;;;;;;;;;4901664;29;20217;-73
2021/04/24 13:10:00;;;;;;;6.77;4.07;;;;;;;;;;4901705;29;20206;-73
2021/04/24 13:13:04;;;;;;;10.63;4.63;;;;;;;;;;4902275;29;20187;-73
2021/04/24 13:16:15;;;;;;;7.27;3.70;;;;;;;;;;4901622;29;20218;-73
2021/04/24 13:19:25;;;;;;;8.40;3.97;;;;;;;;;;4901619;29;20211;-73
2021/04/24 13:22:39;;;;;;;16.70;3.63;;;;;;;;;;4901817;29;20186;-73
2021/04/24 13:25:43;;;;;;;8.67;4.57;;;;;;;;;;4901221;29;20222;-73
2021/04/24 13:28:47;;;;;;;5.30;4.10;;;;;;;;;;4901611;29;20182;-73
2021/04/24 13:32:00;;;;;;;8.43;4.07;;;;;;;;;;4901134;29;20201;-73
2021/04/24 13:35:05;;;;;;;7.17;4.20;;;;;;;;;;4890054;29;20220;-73
2021/04/24 13:38:11;;;;;;;4.93;3.87;;;;;;;;;;4901140;29;20190;-73
2021/04/24 13:41:18;;;;;;;8.13;4.20;;;;;;;;;;4890078;29;20520;-73
2021/04/24 13:44:30;;;;;;;7.30;3.90;;;;;;;;;;4901535;29;20183;-73
2021/04/24 13:47:34;;;;;;;8.37;3.80;;;;;;;;;;4901568;29;20530;-73
2021/04/24 13:50:38;;;;;;;6.10;3.50;;;;;;;;;;4890082;29;20190;-73
2021/04/24 13:53:43;;;;;;;8.10;4.53;;;;;;;;;;4889881;29;20628;-73
2021/04/24 13:56:52;;;;;;;88.00;8.97;;;;;;;;;;4901008;29;20217;-73
2021/04/24 13:59:57;;;;;;;6.57;3.87;;;;;;;;;;4900772;29;20208;-73
2021/04/24 14:03:00;;;;;;;7.80;3.70;;;;;;;;;;4900695;29;20656;-73
2021/04/24 14:06:05;;;;;;;5.50;3.83;;;;;;;;;;4889546;29;20684;-73
2021/04/24 14:09:10;;;;;;;4.93;3.53;;;;;;;;;;4900497;29;20210;-73
2021/04/24 14:12:15;;;;;;;7.13;3.90;;;;;;;;;;4900675;29;20634;-73
2021/04/24 14:15:21;;;;;;;5.27;3.83;;;;;;;;;;4889294;29;20240;-73
2021/04/24 14:18:25;;;;;;;8.30;3.90;;;;;;;;;;4878401;29;20198;-73
2021/04/24 14:21:33;;;;;;;7.87;3.70;;;;;;;;;;4900759;29;20182;-73
2021/04/24 14:24:38;;;;;;;6.10;3.43;;;;;;;;;;4900484;29;20203;-73
2021/04/24 14:27:43;;;;;;;9.40;4.17;;;;;;;;;;4900475;29;20188;-73
2021/04/24 14:30:47;;;;;;;6.27;3.60;;;;;;;;;;4900246;29;20205;-73
2021/04/24 14:33:52;;;;;;;21.47;5.00;;;;;;;;;;4888889;29;20206;-73
2021/04/24 14:36:56;;;;;;;4.83;3.70;;;;;;;;;;4900408;29;20220;-73
2021/04/24 14:40:00;;;;;;;7.33;4.30;;;;;;;;;;4889035;29;20190;-73
2021/04/24 14:43:04;;;;;;;6.83;3.83;;;;;;;;;;4900315;29;20176;-73
2021/04/24 14:46:09;;;;;;;8.87;3.63;;;;;;;;;;4900221;29;20215;-73
2021/04/24 14:49:13;;;;;;;6.50;3.60;;;;;;;;;;4900232;29;20192;-74
2021/04/24 14:52:17;;;;;;;17.53;3.93;;;;;;;;;;4900364;29;20195;-74
2021/04/24 14:55:22;;;;;;;4.83;3.63;;;;;;;;;;4899957;29;20243;-73
2021/04/24 14:58:26;;;;;;;10.70;4.30;;;;;;;;;;4888345;29;20205;-73
2021/04/24 15:01:30;;;;;;;7.73;4.40;;;;;;;;;;4900204;29;20526;-74
2021/04/24 15:04:35;;;;;;;9.30;4.33;;;;;;;;;;4900213;29;20181;-74
2021/04/24 15:07:39;;;;;;;9.10;4.73;;;;;;;;;;4888319;29;20181;-74
2021/04/24 15:10:43;;;;;;;19.87;11.90;;;;;;;;;;4900082;29;20256;-73
2021/04/24 15:13:47;;;;;;;11.77;8.63;;;;;;;;;;4899781;29;20200;-73
2021/04/24 15:16:52;;;;;;;17.33;5.20;;;;;;;;;;4899391;29;20213;-74
2021/04/24 15:19:59;;;;;;;7.80;4.80;;;;;;;;;;4899701;29;20186;-73
2021/04/24 15:23:05;;;;;;;7.43;4.97;;;;;;;;;;4899153;29;20186;-74
2021/04/24 15:26:09;;;;;;;7.63;5.70;;;;;;;;;;4899442;29;20221;-74
2021/04/24 15:29:13;;;;;;;8.03;5.33;;;;;;;;;;4899241;29;20185;-74
2021/04/24 15:32:19;;;;;;;9.83;5.63;;;;;;;;;;4899456;29;20173;-74
2021/04/24 15:35:23;;;;;;;9.10;5.33;;;;;;;;;;4899179;29;20229;-74
2021/04/24 15:38:27;;;;;;;7.47;4.30;;;;;;;;;;4899236;29;20185;-73
2021/04/24 15:41:31;;;;;;;7.40;4.70;;;;;;;;;;4899331;29;20189;-74
2021/04/24 15:44:35;;;;;;;8.53;4.90;;;;;;;;;;4898263;29;20185;-74
2021/04/24 15:47:42;;;;;;;9.77;4.80;;;;;;;;;;4899265;29;20185;-74
2021/04/24 15:50:46;;;;;;;9.27;4.40;;;;;;;;;;4899212;29;20186;-74
2021/04/24 15:53:50;;;;;;;8.73;4.30;;;;;;;;;;4888052;29;20181;-74
2021/04/24 15:57:03;;;;;;;10.67;5.00;;;;;;;;;;4899023;29;20217;-73
2021/04/24 16:00:12;;;;;;;8.93;4.73;;;;;;;;;;4901058;29;20178;-73
2021/04/24 16:03:16;;;;;;;7.83;4.57;;;;;;;;;;4900860;29;20181;-74
2021/04/24 16:06:20;;;;;;;7.17;3.93;;;;;;;;;;4899380;29;20217;-74
2021/04/24 16:09:24;;;;;;;6.43;4.13;;;;;;;;;;4898484;29;20664;-74
2021/04/24 16:12:29;;;;;;;11.43;4.50;;;;;;;;;;4898737;29;20193;-74
2021/04/24 16:15:33;;;;;;;7.87;4.43;;;;;;;;;;4899088;29;20229;-73
2021/04/24 16:18:37;;;;;;;9.33;4.00;;;;;;;;;;4886875;29;20189;-74
2021/04/24 16:21:41;;;;;;;9.07;4.23;;;;;;;;;;4898295;29;20185;-74
2021/04/24 16:24:46;;;;;;;6.60;4.50;;;;;;;;;;4898800;29;20185;-73
2021/04/24 16:27:50;;;;;;;7.67;4.43;;;;;;;;;;4898240;29;20530;-74
2021/04/24 16:30:54;;;;;;;9.23;4.33;;;;;;;;;;4898345;29;20185;-74
2021/04/24 16:34:09;;;;;;;7.53;4.07;;;;;;;;;;4886897;29;20656;-74
2021/04/24 16:37:13;;;;;;;11.27;4.10;;;;;;;;;;4897912;29;20225;-74
2021/04/24 16:40:17;;;;;;;7.30;3.77;;;;;;;;;;4898343;29;20197;-73
2021/04/24 16:43:22;;;;;;;11.93;4.10;;;;;;;;;;4886782;29;20186;-74
2021/04/24 16:46:27;;;;;;;9.60;4.50;;;;;;;;;;4887115;29;20217;-74
2021/04/24 16:49:31;;;;;;;14.43;5.73;;;;;;;;;;4898568;29;20181;-73
2021/04/24 16:52:35;;;;;;;15.90;7.53;;;;;;;;;;4898434;29;20201;-73
2021/04/24 16:55:39;;;;;;;13.90;7.87;;;;;;;;;;4887103;29;20233;-74
2021/04/24 16:58:46;;;;;;;8.53;4.53;;;;;;;;;;4898146;29;20522;-73
2021/04/24 17:01:51;;;;;;;8.80;5.13;;;;;;;;;;4898166;29;20633;-73
2021/04/24 17:04:55;;;;;;;20.13;5.83;;;;;;;;;;4897801;29;20201;-73
2021/04/24 17:07:59;;;;;;;10.97;4.50;;;;;;;;;;4886324;29;20205;-73
2021/04/24 17:11:04;;;;;;;12.00;5.53;;;;;;;;;;4886572;29;20182;-73
2021/04/24 17:14:08;;;;;;;10.03;4.40;;;;;;;;;;4886425;29;20546;-73
2021/04/24 17:17:13;;;;;;;12.00;4.53;;;;;;;;;;4897658;29;20229;-73
2021/04/24 17:20:18;;;;;;;7.73;4.17;;;;;;;;;;4898285;29;20185;-73
2021/04/24 17:23:22;;;;;;;8.23;4.50;;;;;;;;;;4886261;29;20186;-74
2021/04/24 17:26:25;;;;;;;9.73;4.13;;;;;;;;;;4898153;29;20221;-73
2021/04/24 17:29:29;;;;;;;5.60;3.80;;;;;;;;;;4897773;29;20186;-73
2021/04/24 17:32:34;;;;;;;6.80;3.93;;;;;;;;;;4898087;29;20526;-74
2021/04/24 17:35:39;;;;;;;7.13;3.90;;;;;;;;;;4896995;29;20225;-74
2021/04/24 17:38:52;;;;;;;7.67;3.50;;;;;;;;;;4897731;29;20629;-74
2021/04/24 17:41:56;;;;;;;4.67;3.40;;;;;;;;;;4897617;29;20562;-74
2021/04/24 17:45:02;;;;;;;6.00;3.87;;;;;;;;;;4886046;29;20181;-74
2021/04/24 17:48:07;;;;;;;16.77;4.30;;;;;;;;;;4900746;29;20205;-74
2021/04/24 17:51:11;;;;;;;11.83;4.27;;;;;;;;;;4901230;29;20205;-74
2021/04/24 17:54:15;;;;;;;13.07;3.97;;;;;;;;;;4901266;29;20530;-74
2021/04/24 17:57:19;;;;;;;6.87;4.70;;;;;;;;;;4901380;29;20558;-74
2021/04/24 18:00:26;;;;;;;12.70;4.50;;;;;;;;;;4901163;29;20185;-74
2021/04/24 18:03:30;;;;;;;6.87;4.63;;;;;;;;;;4889514;29;20190;-74
2021/04/24 18:06:35;;;;;;;8.60;4.27;;;;;;;;;;4889308;29;20217;-74
2021/04/24 18:09:40;;;;;;;6.33;4.17;;;;;;;;;;4917449;23;20240;-76
2021/04/24 18:12:45;;;;;;;6.30;3.83;;;;;;;;;;4890159;29;20190;-76
2021/04/24 18:15:49;;;;;;;6.80;4.07;;;;;;;;;;4904715;29;20236;-76
2021/04/24 18:18:53;;;;;;;5.73;3.40;;;;;;;;;;4908603;29;20193;-76
2021/04/24 18:22:12;;;;;;;5.53;3.47;;;;;;;;;;4919682;29;20185;-76
2021/04/24 18:25:16;;;;;;;26.30;4.80;;;;;;;;;;4919662;29;20225;-76
2021/04/24 18:28:21;;;;;;;12.43;4.40;;;;;;;;;;4918915;29;20208;-76